Terminal Aerodrome Forecast
Issued by NWS

Home | Current Version | Previous Version | Graphics & Text | Print | Product List | Glossary On
Versions: 1 2 3 4 5 6 7 8 9 10 11 12
431
FTUS43 KTOP 201122
TAFFOE
TAF
KFOE 201122Z 2012/2112 20012G20KT P6SM SKC WS017/19055KT
     FM201300 21011KT P6SM FEW200
     FM202300 05007KT P6SM SCT090
     FM210100 07007KT P6SM VCTS BKN080CB=

USA.gov is the U.S. government's official web portal to all federal, state and local government web resources and services.